Time;durP1;ratioP1;P1;durP2;ratioP2;P2;SDS_P1;SDS_P2;PMS_P1;PMS_P2;Temp;Humidity;BMP_temperature;BMP_pressure;BME280_temperature;BME280_humidity;BME280_pressure;Samples;Min_cycle;Max_cycle;Signal;HPM_P1;HPM_P2
2022/08/25 00:01:48;;;;;;;5.68;3.05;;;19.60;76.40;;;;;;5043975;28;20043;-85
2022/08/25 00:04:15;;;;;;;5.50;3.03;;;19.50;76.70;;;;;;5051551;28;20097;-83
2022/08/25 00:06:43;;;;;;;6.63;3.28;;;19.50;77.20;;;;;;5050161;28;20088;-84
2022/08/25 00:09:11;;;;;;;6.68;3.33;;;19.50;77.40;;;;;;5049898;28;20036;-84
2022/08/25 00:11:38;;;;;;;6.07;3.38;;;19.50;77.70;;;;;;5033813;28;20496;-84
2022/08/25 00:14:09;;;;;;;5.22;3.50;;;19.40;77.70;;;;;;5034109;28;20040;-84
2022/08/25 00:16:34;;;;;;;6.47;3.08;;;19.40;77.90;;;;;;5038144;28;20030;-84
2022/08/25 00:19:06;;;;;;;7.57;3.75;;;19.30;78.50;;;;;;5040071;28;20033;-84
2022/08/25 00:21:32;;;;;;;9.73;3.55;;;19.30;78.80;;;;;;5046887;28;20509;-85
2022/08/25 00:24:01;;;;;;;5.80;3.25;;;19.30;79.40;;;;;;5051361;28;20099;-84
2022/08/25 00:26:26;;;;;;;6.32;3.55;;;19.30;79.40;;;;;;5047372;28;20029;-85
2022/08/25 00:28:52;;;;;;;7.28;3.50;;;19.20;79.80;;;;;;5039693;28;20033;-83
2022/08/25 00:31:22;;;;;;;8.02;3.58;;;19.20;80.00;;;;;;5049160;28;20410;-86
2022/08/25 00:33:48;;;;;;;6.30;3.65;;;19.10;80.00;;;;;;5048785;28;20036;-84
2022/08/25 00:36:15;;;;;;;7.25;3.70;;;19.10;81.10;;;;;;5051104;28;20374;-84
2022/08/25 00:38:44;;;;;;;11.43;4.00;;;19.10;81.20;;;;;;5049722;28;20024;-83
2022/08/25 00:41:12;;;;;;;8.40;3.88;;;19.10;81.70;;;;;;5050169;28;20544;-83
2022/08/25 00:43:41;;;;;;;8.13;3.70;;;19.10;82.00;;;;;;5049773;28;20017;-85
2022/08/25 00:46:08;;;;;;;11.25;3.22;;;19.10;82.10;;;;;;5048154;28;20109;-84
2022/08/25 00:48:34;;;;;;;9.38;3.75;;;19.10;82.00;;;;;;5043973;28;20038;-84
2022/08/25 00:51:01;;;;;;;7.95;3.50;;;19.10;82.60;;;;;;5051863;28;20079;-84
2022/08/25 00:53:29;;;;;;;8.18;3.78;;;19.00;82.70;;;;;;5049840;28;20041;-84
2022/08/25 00:55:54;;;;;;;6.07;3.60;;;19.10;83.00;;;;;;5047970;28;20541;-84
2022/08/25 00:58:24;;;;;;;6.88;3.92;;;19.00;83.00;;;;;;5040347;28;20025;-84
2022/08/25 01:00:54;;;;;;;7.85;3.40;;;19.00;83.00;;;;;;5045272;28;20055;-84
2022/08/25 01:03:20;;;;;;;7.70;4.03;;;19.00;83.40;;;;;;5050820;28;20056;-84
2022/08/25 01:05:47;;;;;;;6.90;3.88;;;18.90;83.60;;;;;;5053308;28;20033;-85
2022/08/25 01:08:14;;;;;;;7.65;3.90;;;18.90;84.00;;;;;;5048735;28;20021;-84
2022/08/25 01:10:43;;;;;;;7.00;4.22;;;18.90;84.20;;;;;;5052314;28;20029;-84
2022/08/25 01:13:14;;;;;;;6.85;4.20;;;18.80;84.10;;;;;;5054134;28;20125;-83
2022/08/25 01:15:40;;;;;;;8.70;4.47;;;18.70;84.80;;;;;;5047306;28;20033;-84
2022/08/25 01:18:06;;;;;;;6.05;3.70;;;18.70;84.80;;;;;;5034174;28;20323;-82
2022/08/25 01:20:33;;;;;;;8.20;3.53;;;18.70;84.90;;;;;;5050636;28;20048;-83
2022/08/25 01:22:59;;;;;;;7.15;4.30;;;18.60;85.00;;;;;;5043205;28;20028;-84
2022/08/25 01:25:50;;;;;;;8.20;4.35;;;18.60;85.40;;;;;;5051059;28;20037;-84
2022/08/25 01:28:17;;;;;;;9.95;4.07;;;18.50;85.30;;;;;;5035799;28;20029;-85
2022/08/25 01:30:42;;;;;;;5.60;3.70;;;18.50;85.70;;;;;;5042043;28;20025;-84
2022/08/25 01:33:10;;;;;;;6.20;3.97;;;18.50;85.80;;;;;;5049767;28;20036;-84
2022/08/25 01:35:35;;;;;;;13.05;4.55;;;18.40;85.70;;;;;;5050183;28;20025;-84
2022/08/25 01:38:03;;;;;;;7.18;4.38;;;18.40;86.20;;;;;;5047468;28;20037;-83
2022/08/25 01:40:30;;;;;;;6.50;3.95;;;18.40;86.40;;;;;;5047415;28;20044;-84
2022/08/25 01:43:13;;;;;;;7.85;4.47;;;18.30;86.60;;;;;;5047867;28;20030;-84
2022/08/25 01:45:43;;;;;;;6.28;4.25;;;18.30;87.00;;;;;;5043498;28;20046;-84
2022/08/25 01:48:11;;;;;;;7.68;4.40;;;18.20;86.90;;;;;;5049582;28;20057;-83
2022/08/25 01:50:37;;;;;;;9.90;4.60;;;18.20;87.10;;;;;;5049168;28;20081;-84
2022/08/25 01:53:07;;;;;;;6.20;4.03;;;18.20;86.70;;;;;;5047275;28;20061;-84
2022/08/25 01:55:52;;;;;;;7.95;4.63;;;18.10;87.20;;;;;;5050455;28;20037;-83
2022/08/25 01:58:21;;;;;;;7.28;4.15;;;18.10;87.20;;;;;;5041794;28;20054;-84
2022/08/25 02:00:49;;;;;;;7.90;4.72;;;18.10;87.70;;;;;;5046939;28;20012;-84
2022/08/25 02:03:15;;;;;;;6.70;4.50;;;18.00;87.70;;;;;;5046284;28;20029;-83
2022/08/25 02:05:41;;;;;;;9.73;4.95;;;18.00;87.70;;;;;;5049374;28;20075;-83
2022/08/25 02:08:07;;;;;;;9.02;4.38;;;18.00;88.20;;;;;;5047801;28;20045;-83
2022/08/25 02:10:32;;;;;;;6.60;4.22;;;18.00;88.20;;;;;;5050144;28;20049;-84
2022/08/25 02:12:58;;;;;;;8.18;4.60;;;18.00;88.30;;;;;;5039597;28;20040;-84
2022/08/25 02:15:24;;;;;;;8.73;4.78;;;17.90;88.40;;;;;;5034395;28;20045;-83
2022/08/25 02:17:50;;;;;;;12.05;5.20;;;17.90;88.70;;;;;;5032880;28;20021;-83
2022/08/25 02:20:15;;;;;;;9.98;5.15;;;17.80;88.70;;;;;;5028085;28;20079;-84
2022/08/25 02:22:41;;;;;;;7.20;4.72;;;17.80;88.90;;;;;;5030804;28;20112;-84
2022/08/25 02:25:07;;;;;;;13.10;5.10;;;17.80;88.90;;;;;;5032636;28;20021;-83
2022/08/25 02:27:33;;;;;;;11.93;4.68;;;17.70;89.00;;;;;;5022689;28;20048;-84
2022/08/25 02:29:58;;;;;;;9.55;4.82;;;17.70;89.20;;;;;;5025408;28;20041;-85
2022/08/25 02:32:24;;;;;;;11.80;5.20;;;17.70;89.50;;;;;;5030246;28;20075;-83
2022/08/25 02:34:49;;;;;;;7.93;5.07;;;17.70;89.50;;;;;;5032992;28;20488;-84
2022/08/25 02:37:15;;;;;;;10.85;5.13;;;17.60;89.60;;;;;;5033249;28;20108;-83
2022/08/25 02:39:40;;;;;;;11.88;5.45;;;17.70;89.80;;;;;;5031325;28;20040;-83
2022/08/25 02:42:06;;;;;;;9.85;4.80;;;17.60;89.80;;;;;;5032488;28;20038;-83
2022/08/25 02:44:31;;;;;;;8.82;5.90;;;17.60;89.90;;;;;;5027756;28;20030;-83
2022/08/25 02:46:57;;;;;;;8.60;5.95;;;17.60;90.10;;;;;;5034731;28;20045;-83
2022/08/25 02:49:23;;;;;;;7.82;5.20;;;17.60;90.30;;;;;;5034185;28;20047;-83
2022/08/25 02:51:48;;;;;;;8.52;5.35;;;17.60;90.40;;;;;;5028420;28;20048;-83
2022/08/25 02:54:14;;;;;;;9.23;5.90;;;17.60;90.50;;;;;;5034099;28;20064;-83
2022/08/25 02:56:41;;;;;;;11.10;5.15;;;17.50;90.70;;;;;;5025197;28;20061;-83
2022/08/25 02:59:07;;;;;;;10.70;6.30;;;17.50;90.80;;;;;;5033756;28;20033;-83
2022/08/25 03:01:33;;;;;;;8.73;5.95;;;17.50;91.00;;;;;;5031923;28;20164;-83
2022/08/25 03:03:59;;;;;;;12.50;6.07;;;17.50;91.00;;;;;;5031773;28;20116;-84
2022/08/25 03:06:26;;;;;;;7.65;5.55;;;17.40;91.10;;;;;;5033634;28;20818;-84
2022/08/25 03:08:52;;;;;;;8.90;6.20;;;17.40;91.30;;;;;;5020773;28;20025;-84
2022/08/25 03:11:19;;;;;;;8.75;5.95;;;17.40;91.50;;;;;;5022479;28;20053;-84
2022/08/25 03:13:44;;;;;;;13.05;5.43;;;17.40;91.60;;;;;;5019820;28;20390;-83
2022/08/25 03:16:11;;;;;;;10.65;5.97;;;17.40;91.70;;;;;;5034554;28;20026;-83
2022/08/25 03:18:37;;;;;;;10.48;6.43;;;17.30;91.80;;;;;;5032215;28;20034;-84
2022/08/25 03:21:03;;;;;;;9.82;6.05;;;17.30;91.80;;;;;;5027473;28;20037;-84
2022/08/25 03:23:29;;;;;;;9.43;6.07;;;17.30;92.10;;;;;;5028271;28;20038;-84
2022/08/25 03:28:40;;;;;;;9.57;6.10;;;17.30;92.30;;;;;;5022721;28;20084;-83
2022/08/25 03:31:06;;;;;;;10.15;6.05;;;17.30;92.30;;;;;;5027634;28;20053;-83
2022/08/25 03:33:32;;;;;;;9.93;6.13;;;17.30;92.60;;;;;;5028994;28;20030;-84
2022/08/25 03:35:58;;;;;;;14.00;7.13;;;17.30;92.70;;;;;;5027816;28;20041;-84
2022/08/25 03:38:24;;;;;;;10.82;6.07;;;17.30;92.90;;;;;;5030160;28;20531;-83
2022/08/25 03:40:51;;;;;;;10.10;6.68;;;17.30;93.10;;;;;;5026980;28;20378;-84
2022/08/25 03:43:17;;;;;;;10.63;7.22;;;17.20;93.10;;;;;;5032438;28;20041;-84
2022/08/25 03:45:44;;;;;;;10.48;6.97;;;17.20;93.20;;;;;;5029962;28;20042;-84
2022/08/25 03:48:10;;;;;;;12.18;7.43;;;17.20;93.30;;;;;;5025335;28;20053;-84
2022/08/25 03:50:36;;;;;;;11.18;6.47;;;17.20;93.30;;;;;;5028005;28;20080;-83
2022/08/25 03:53:02;;;;;;;10.75;6.65;;;17.20;93.40;;;;;;5029066;28;20108;-83
2022/08/25 03:55:28;;;;;;;10.32;6.95;;;17.20;93.50;;;;;;5032529;28;20117;-83
2022/08/25 03:57:53;;;;;;;12.27;7.45;;;17.20;93.60;;;;;;5033925;28;20053;-83
2022/08/25 04:00:20;;;;;;;16.23;7.53;;;17.20;93.80;;;;;;5033285;28;20495;-83
2022/08/25 04:02:46;;;;;;;10.65;7.32;;;17.10;93.90;;;;;;5038121;28;20368;-83
2022/08/25 04:05:12;;;;;;;11.85;7.22;;;17.10;93.80;;;;;;5029290;28;20137;-82
2022/08/25 04:07:38;;;;;;;10.90;7.53;;;17.10;93.90;;;;;;5024874;28;20018;-81
2022/08/25 04:10:06;;;;;;;11.20;6.95;;;17.10;93.90;;;;;;5032481;28;20025;-81
2022/08/25 04:12:31;;;;;;;10.95;7.47;;;17.10;94.20;;;;;;5034595;28;20036;-81
2022/08/25 04:14:57;;;;;;;13.52;7.32;;;17.00;94.10;;;;;;5034423;28;20109;-81
2022/08/25 04:17:23;;;;;;;10.48;7.75;;;17.00;94.20;;;;;;5033325;28;20481;-80
2022/08/25 04:19:49;;;;;;;13.48;7.32;;;17.00;94.20;;;;;;5034980;28;20175;-79
2022/08/25 04:22:15;;;;;;;12.13;7.85;;;17.00;94.10;;;;;;5023047;28;20026;-80
2022/08/25 04:24:41;;;;;;;10.70;7.25;;;17.00;94.30;;;;;;5028766;28;20041;-80
2022/08/25 04:27:06;;;;;;;13.45;7.30;;;17.00;94.30;;;;;;5035284;28;20029;-79
2022/08/25 04:29:32;;;;;;;13.88;7.78;;;17.00;94.10;;;;;;5035221;28;20030;-78
2022/08/25 04:31:57;;;;;;;12.60;7.63;;;17.00;94.10;;;;;;5028375;28;20033;-79
2022/08/25 04:34:25;;;;;;;11.63;7.60;;;17.00;94.20;;;;;;5031504;28;20060;-80
2022/08/25 04:36:50;;;;;;;8.95;7.07;;;17.00;94.30;;;;;;5038464;28;20037;-80
2022/08/25 04:39:19;;;;;;;15.45;8.13;;;17.00;94.20;;;;;;5023160;28;20049;-81
2022/08/25 04:41:45;;;;;;;14.13;8.32;;;17.00;94.20;;;;;;5031058;28;20028;-80
2022/08/25 04:44:10;;;;;;;15.02;8.40;;;17.00;94.30;;;;;;5030843;28;20029;-80
2022/08/25 04:46:36;;;;;;;12.30;8.05;;;17.00;94.20;;;;;;5030000;28;20046;-80
2022/08/25 04:49:03;;;;;;;13.07;8.18;;;17.00;94.30;;;;;;5032950;28;20084;-79
2022/08/25 04:51:35;;;;;;;13.27;8.00;;;17.10;94.50;;;;;;5020411;28;20056;-82
2022/08/25 04:54:04;;;;;;;11.25;8.45;;;17.10;94.60;;;;;;5032314;28;20025;-80
2022/08/25 04:56:34;;;;;;;11.52;7.95;;;17.20;94.80;;;;;;5027021;28;20088;-80
2022/08/25 04:59:07;;;;;;;17.00;8.48;;;17.20;94.70;;;;;;5027923;28;20521;-79
2022/08/25 05:01:33;;;;;;;13.77;8.35;;;17.20;94.80;;;;;;5031749;28;20033;-79
2022/08/25 05:04:03;;;;;;;11.63;8.43;;;17.30;94.80;;;;;;5034197;28;20045;-79
2022/08/25 05:06:29;;;;;;;15.50;8.43;;;17.40;94.90;;;;;;5020991;28;20458;-80
2022/08/25 05:08:56;;;;;;;9.85;7.85;;;17.30;94.90;;;;;;5029996;28;20121;-81
2022/08/25 05:11:23;;;;;;;14.05;8.68;;;17.40;94.90;;;;;;5032444;28;20373;-82
2022/08/25 05:13:50;;;;;;;18.35;8.52;;;17.40;95.00;;;;;;5034003;28;20025;-80
2022/08/25 05:16:17;;;;;;;12.25;7.97;;;17.50;94.90;;;;;;5033644;28;20044;-81
2022/08/25 05:18:43;;;;;;;11.25;7.90;;;17.50;94.80;;;;;;5027714;28;20033;-80
2022/08/25 05:21:17;;;;;;;14.65;8.60;;;17.50;94.80;;;;;;5032348;28;20041;-80
2022/08/25 05:23:43;;;;;;;13.88;9.40;;;17.60;94.90;;;;;;5031770;28;20437;-80
2022/08/25 05:26:11;;;;;;;14.45;8.27;;;17.60;94.90;;;;;;5028195;28;20026;-81
2022/08/25 05:28:39;;;;;;;14.38;8.45;;;17.70;94.80;;;;;;5042804;28;20038;-81
2022/08/25 05:31:05;;;;;;;14.52;8.15;;;17.70;94.80;;;;;;5035154;28;20017;-81
2022/08/25 05:33:30;;;;;;;14.27;9.52;;;17.80;94.80;;;;;;5022981;28;20040;-80
2022/08/25 05:35:56;;;;;;;15.63;8.43;;;17.90;94.70;;;;;;5034387;28;20029;-80
2022/08/25 05:38:22;;;;;;;16.08;8.82;;;17.90;94.70;;;;;;5028509;28;20426;-80
2022/08/25 05:40:52;;;;;;;13.80;8.38;;;18.00;94.60;;;;;;5026087;28;20022;-80
2022/08/25 05:43:18;;;;;;;10.98;8.23;;;18.00;94.50;;;;;;5032346;28;20061;-80
2022/08/25 05:45:44;;;;;;;13.05;8.73;;;18.10;94.40;;;;;;5034416;28;20124;-80
2022/08/25 05:48:09;;;;;;;12.43;8.43;;;18.10;94.20;;;;;;5026896;28;20049;-79
2022/08/25 05:50:35;;;;;;;13.18;8.30;;;18.20;94.20;;;;;;5035015;28;20405;-80
2022/08/25 05:53:01;;;;;;;10.77;8.38;;;18.30;94.10;;;;;;5028660;28;20040;-81
2022/08/25 05:55:26;;;;;;;13.10;9.35;;;18.40;94.00;;;;;;5034936;28;20112;-80
2022/08/25 05:57:52;;;;;;;12.48;8.60;;;18.40;93.80;;;;;;5029715;28;20133;-80
2022/08/25 06:00:18;;;;;;;10.98;8.38;;;18.50;93.60;;;;;;5033810;28;20025;-80
2022/08/25 06:02:45;;;;;;;10.73;7.60;;;18.60;93.50;;;;;;5023349;28;20089;-80
2022/08/25 06:05:16;;;;;;;13.88;8.73;;;18.60;93.30;;;;;;5028698;28;20056;-82
2022/08/25 06:07:42;;;;;;;;;;;18.70;93.10;;;;;;5024100;28;20029;-79
2022/08/25 06:10:10;;;;;;;11.80;7.40;;;18.80;93.10;;;;;;5029146;28;19913;-80
2022/08/25 06:12:37;;;;;;;11.63;8.00;;;18.90;92.90;;;;;;5030238;28;20085;-80
2022/08/25 06:15:04;;;;;;;10.57;7.13;;;18.90;92.70;;;;;;5030671;28;20037;-81
2022/08/25 06:17:30;;;;;;;12.02;7.05;;;19.00;92.50;;;;;;5030029;28;20025;-80
2022/08/25 06:19:55;;;;;;;9.88;7.18;;;19.00;92.20;;;;;;5035275;28;20569;-80
2022/08/25 06:22:21;;;;;;;12.93;7.40;;;19.10;92.20;;;;;;5026752;28;20045;-80
2022/08/25 06:24:47;;;;;;;13.55;6.95;;;19.10;91.90;;;;;;5031520;28;20093;-81
2022/08/25 06:27:13;;;;;;;11.48;7.68;;;19.30;91.80;;;;;;5030998;28;20021;-80
2022/08/25 06:29:38;;;;;;;11.27;6.95;;;19.30;91.50;;;;;;5027205;28;20030;-81
2022/08/25 06:32:04;;;;;;;10.77;6.45;;;19.40;91.40;;;;;;5024324;28;20033;-80
2022/08/25 06:34:30;;;;;;;10.43;6.68;;;19.50;91.20;;;;;;5027793;28;20026;-80
2022/08/25 06:36:55;;;;;;;11.32;7.10;;;19.50;90.90;;;;;;5030344;28;20034;-80
2022/08/25 06:39:22;;;;;;;13.32;6.32;;;19.50;90.60;;;;;;5033777;28;20061;-81
2022/08/25 06:41:55;;;;;;;11.00;6.43;;;19.60;90.60;;;;;;5028689;28;20029;-81
2022/08/25 06:44:22;;;;;;;11.07;6.53;;;19.70;90.40;;;;;;5034345;28;20376;-81
2022/08/25 06:46:48;;;;;;;10.90;6.70;;;19.80;90.40;;;;;;5033601;28;20046;-81
2022/08/25 06:49:14;;;;;;;10.85;6.85;;;19.90;90.00;;;;;;5050122;28;20483;-80
2022/08/25 06:51:40;;;;;;;9.38;6.50;;;19.90;89.80;;;;;;5029311;28;20028;-81
2022/08/25 06:54:08;;;;;;;10.52;6.60;;;20.00;89.20;;;;;;5030244;28;20088;-80
2022/08/25 06:56:34;;;;;;;11.60;6.70;;;20.00;89.10;;;;;;5028482;28;20139;-82
2022/08/25 06:59:02;;;;;;;10.82;7.07;;;20.20;89.30;;;;;;5027937;28;20038;-81
2022/08/25 07:01:27;;;;;;;13.23;7.13;;;20.30;88.90;;;;;;5029915;28;20033;-81
2022/08/25 07:03:58;;;;;;;9.52;6.57;;;20.40;88.40;;;;;;5033288;28;20030;-80
2022/08/25 07:06:24;;;;;;;;;;;20.50;88.30;;;;;;5031391;28;20037;-81
2022/08/25 07:08:50;;;;;;;10.25;5.72;;;20.50;88.10;;;;;;5031126;28;19913;-80
2022/08/25 07:11:16;;;;;;;13.57;6.60;;;20.50;88.10;;;;;;5029880;28;20420;-81
2022/08/25 07:13:42;;;;;;;11.07;6.70;;;20.60;88.00;;;;;;5030821;28;20038;-80
2022/08/25 07:16:09;;;;;;;12.35;6.68;;;20.70;87.40;;;;;;5032263;28;20029;-80
2022/08/25 07:18:35;;;;;;;12.07;6.95;;;20.70;87.00;;;;;;5033205;28;20026;-80
2022/08/25 07:21:01;;;;;;;9.23;6.30;;;20.80;86.70;;;;;;5031467;28;20064;-81
2022/08/25 07:23:27;;;;;;;10.95;7.15;;;20.80;86.80;;;;;;5032668;28;20022;-80
2022/08/25 07:25:53;;;;;;;11.95;6.80;;;20.80;86.60;;;;;;5032162;28;20025;-81
2022/08/25 07:28:20;;;;;;;8.65;6.15;;;20.90;86.70;;;;;;5032010;28;20022;-81
2022/08/25 07:30:46;;;;;;;10.55;6.07;;;21.00;86.60;;;;;;5033189;28;20399;-81
2022/08/25 07:33:12;;;;;;;10.30;6.53;;;21.10;86.30;;;;;;5032029;28;20117;-81
2022/08/25 07:35:37;;;;;;;10.90;7.07;;;21.10;85.90;;;;;;5033916;28;20117;-81
2022/08/25 07:38:05;;;;;;;10.38;6.97;;;21.10;85.50;;;;;;5020757;28;20025;-81
2022/08/25 07:40:35;;;;;;;10.05;6.90;;;21.20;85.60;;;;;;5030040;28;20159;-81
2022/08/25 07:43:04;;;;;;;12.70;6.60;;;21.30;85.30;;;;;;5031710;28;20033;-82
2022/08/25 07:45:34;;;;;;;11.63;6.38;;;21.50;85.20;;;;;;5031959;28;20033;-81
2022/08/25 07:48:04;;;;;;;8.80;5.97;;;21.50;84.90;;;;;;5037014;28;20022;-81
2022/08/25 07:50:30;;;;;;;11.00;6.40;;;21.70;84.40;;;;;;5036244;28;20028;-81
2022/08/25 07:52:57;;;;;;;9.63;6.40;;;21.70;84.10;;;;;;5033732;28;20504;-81
2022/08/25 07:55:24;;;;;;;9.43;6.53;;;21.90;83.70;;;;;;5036287;28;20033;-81
2022/08/25 07:57:51;;;;;;;13.30;6.15;;;22.00;83.30;;;;;;5035555;28;20039;-82
2022/08/25 08:00:17;;;;;;;11.90;6.25;;;22.20;83.10;;;;;;5037959;28;20061;-81
2022/08/25 08:02:43;;;;;;;10.77;6.57;;;22.30;82.50;;;;;;5033567;28;20346;-81
2022/08/25 08:05:10;;;;;;;10.80;6.65;;;22.50;82.60;;;;;;5036443;28;20045;-81
2022/08/25 08:07:36;;;;;;;15.15;7.45;;;22.70;82.00;;;;;;5030922;28;20374;-82
2022/08/25 08:10:03;;;;;;;14.20;7.28;;;22.50;80.70;;;;;;5034346;28;20029;-82
2022/08/25 08:12:28;;;;;;;14.55;6.78;;;22.20;81.50;;;;;;5032945;28;20029;-81
2022/08/25 08:14:54;;;;;;;11.27;7.38;;;22.40;81.80;;;;;;5035144;28;20568;-81
2022/08/25 08:17:20;;;;;;;13.15;7.38;;;22.50;81.20;;;;;;5036791;28;20048;-81
2022/08/25 08:19:46;;;;;;;13.43;7.55;;;22.60;81.30;;;;;;5037243;28;20117;-81
2022/08/25 08:22:14;;;;;;;11.57;7.15;;;22.50;80.90;;;;;;5031326;28;20124;-82
2022/08/25 08:24:43;;;;;;;9.85;6.90;;;22.60;80.80;;;;;;5026972;28;20040;-82
2022/08/25 08:27:09;;;;;;;9.95;6.70;;;22.70;80.50;;;;;;5027142;28;20060;-82
2022/08/25 08:29:36;;;;;;;14.27;7.22;;;23.10;80.40;;;;;;5034916;28;20466;-82
2022/08/25 08:32:04;;;;;;;10.20;7.38;;;23.20;79.70;;;;;;5035458;28;20037;-81
2022/08/25 08:34:29;;;;;;;12.77;7.05;;;23.30;78.90;;;;;;5034671;28;20039;-82
2022/08/25 08:36:55;;;;;;;12.55;7.20;;;23.40;79.40;;;;;;5026913;28;20113;-81
2022/08/25 08:39:21;;;;;;;8.75;5.82;;;23.50;79.40;;;;;;5032987;28;20084;-82
2022/08/25 08:42:18;;;;;;;8.57;6.43;;;23.70;78.50;;;;;;5034364;28;20116;-82
2022/08/25 08:45:06;;;;;;;9.23;6.65;;;23.60;77.30;;;;;;5019805;28;20080;-81
2022/08/25 08:48:14;;;;;;;10.48;6.57;;;23.90;78.10;;;;;;5040665;28;20025;-82
2022/08/25 08:51:05;;;;;;;10.10;6.18;;;23.80;78.00;;;;;;5031682;28;20022;-82
2022/08/25 08:53:59;;;;;;;8.85;6.20;;;23.90;77.70;;;;;;5031981;28;20017;-81
2022/08/25 08:56:44;;;;;;;10.57;6.55;;;24.00;77.30;;;;;;5034692;28;20033;-81
2022/08/25 08:59:14;;;;;;;10.65;6.32;;;23.70;77.80;;;;;;5029260;28;20117;-81
2022/08/25 09:01:49;;;;;;;11.18;6.07;;;24.00;76.20;;;;;;5030330;28;20042;-83
2022/08/25 09:04:23;;;;;;;12.65;6.55;;;24.10;76.10;;;;;;5036881;28;20029;-81
2022/08/25 09:06:49;;;;;;;10.73;5.70;;;24.00;76.80;;;;;;5033587;28;20435;-82
2022/08/25 09:09:23;;;;;;;13.35;6.32;;;24.40;77.20;;;;;;5041611;28;20053;-82
2022/08/25 09:12:23;;;;;;;10.43;6.90;;;24.40;75.60;;;;;;5032475;28;20405;-81
2022/08/25 09:14:51;;;;;;;10.57;6.47;;;24.30;76.20;;;;;;5030745;28;20037;-82
2022/08/25 09:17:27;;;;;;;10.45;6.15;;;24.20;75.00;;;;;;5034723;28;20124;-82
2022/08/25 09:20:11;;;;;;;8.55;5.60;;;24.50;74.70;;;;;;5035408;28;20381;-82
2022/08/25 09:23:01;;;;;;;8.50;5.93;;;24.80;74.10;;;;;;5030372;28;20048;-81
2022/08/25 09:25:44;;;;;;;10.90;5.75;;;24.50;74.30;;;;;;5033981;28;20041;-82
2022/08/25 09:28:30;;;;;;;9.48;5.72;;;25.10;74.20;;;;;;5033489;28;20059;-82
2022/08/25 09:31:04;;;;;;;11.07;6.28;;;25.00;74.10;;;;;;5030576;28;20476;-82
2022/08/25 09:33:33;;;;;;;9.55;6.30;;;25.10;71.80;;;;;;5032226;28;20033;-82
2022/08/25 09:35:59;;;;;;;10.45;5.25;;;24.90;72.70;;;;;;5034447;28;20036;-82
2022/08/25 09:38:29;;;;;;;9.90;4.97;;;25.00;73.00;;;;;;5025992;28;20030;-82
2022/08/25 09:40:57;;;;;;;11.52;6.05;;;25.50;72.10;;;;;;5029830;28;20029;-83
2022/08/25 09:43:51;;;;;;;10.60;6.28;;;25.00;73.30;;;;;;5046436;28;20060;-82
2022/08/25 09:46:24;;;;;;;9.50;5.15;;;25.20;72.60;;;;;;5026277;28;20050;-82
2022/08/25 09:48:53;;;;;;;10.20;5.35;;;25.20;72.60;;;;;;5030563;28;20067;-81
2022/08/25 09:51:27;;;;;;;9.68;5.05;;;25.20;72.90;;;;;;5032476;28;20032;-83
2022/08/25 09:53:59;;;;;;;12.00;5.88;;;25.40;72.90;;;;;;5032091;28;20084;-81
2022/08/25 09:56:27;;;;;;;10.95;5.05;;;25.00;72.30;;;;;;5034455;28;20109;-83
2022/08/25 09:58:59;;;;;;;8.80;4.97;;;25.40;73.00;;;;;;5033178;28;20037;-81
2022/08/25 10:01:25;;;;;;;9.43;5.38;;;25.70;71.40;;;;;;5029811;28;20060;-83
2022/08/25 10:03:56;;;;;;;7.60;5.28;;;25.80;71.10;;;;;;5033822;28;20034;-81
2022/08/25 10:06:22;;;;;;;11.00;5.40;;;26.20;69.20;;;;;;5033924;28;20040;-83
2022/08/25 10:08:48;;;;;;;6.72;4.68;;;26.30;69.90;;;;;;5030400;28;20029;-82
2022/08/25 10:11:37;;;;;;;9.85;5.15;;;26.70;68.70;;;;;;5032998;28;20495;-82
2022/08/25 10:14:39;;;;;;;10.30;5.50;;;26.50;68.70;;;;;;5035242;28;20025;-81
2022/08/25 10:17:23;;;;;;;7.88;5.05;;;26.40;67.80;;;;;;5041240;28;20021;-82
2022/08/25 10:19:51;;;;;;;7.40;4.57;;;26.20;68.80;;;;;;5032716;28;20034;-83
2022/08/25 10:22:31;;;;;;;9.88;4.40;;;26.00;70.10;;;;;;5028777;28;20038;-82
2022/08/25 10:24:58;;;;;;;8.30;4.25;;;26.60;68.60;;;;;;5035156;28;20021;-82
2022/08/25 10:27:57;;;;;;;9.38;4.80;;;26.90;66.90;;;;;;5029698;28;20032;-82
2022/08/25 10:30:30;;;;;;;6.32;4.15;;;26.90;67.40;;;;;;5022955;28;20033;-83
2022/08/25 10:33:11;;;;;;;8.23;4.32;;;27.00;67.30;;;;;;5035039;28;20124;-83
2022/08/25 10:35:46;;;;;;;9.57;5.38;;;27.50;65.00;;;;;;5035145;28;20530;-82
2022/08/25 10:38:37;;;;;;;12.90;4.78;;;27.30;65.50;;;;;;5031939;28;20429;-81
2022/08/25 10:41:32;;;;;;;10.23;4.65;;;27.20;64.30;;;;;;5027207;28;20117;-82
2022/08/25 10:47:15;;;;;;;9.95;4.95;;;28.00;63.60;;;;;;5026145;28;20179;-82
2022/08/25 10:49:46;;;;;;;8.27;5.40;;;28.00;62.70;;;;;;5032463;28;20025;-83
2022/08/25 10:52:31;;;;;;;10.63;4.80;;;27.50;62.80;;;;;;5029223;28;20033;-82
2022/08/25 10:55:10;;;;;;;9.45;4.45;;;28.20;62.70;;;;;;5027699;28;20064;-81
2022/08/25 10:57:57;;;;;;;7.33;4.30;;;28.10;63.10;;;;;;5031319;28;20034;-82
2022/08/25 11:00:30;;;;;;;8.98;4.68;;;28.70;61.30;;;;;;5024780;28;20041;-84
2022/08/25 11:03:19;;;;;;;8.75;4.68;;;28.80;60.50;;;;;;5021070;28;20327;-81
2022/08/25 11:05:51;;;;;;;6.45;3.83;;;29.00;59.80;;;;;;5023083;28;20117;-82
2022/08/25 11:08:31;;;;;;;9.48;4.10;;;29.00;60.00;;;;;;5027145;28;20030;-83
2022/08/25 11:11:13;;;;;;;8.32;4.25;;;29.20;59.70;;;;;;5032736;28;20065;-82
2022/08/25 11:14:18;;;;;;;9.13;4.50;;;28.90;59.50;;;;;;5031710;28;20027;-83
2022/08/25 11:16:52;;;;;;;6.30;3.90;;;29.20;60.30;;;;;;5019053;28;20092;-83
2022/08/25 11:19:25;;;;;;;8.18;4.45;;;29.30;59.30;;;;;;5035395;28;20064;-82
2022/08/25 11:22:21;;;;;;;7.47;4.15;;;29.30;57.70;;;;;;5034343;28;20113;-82
2022/08/25 11:25:24;;;;;;;13.90;4.43;;;29.70;56.60;;;;;;5041250;28;20056;-82
2022/08/25 11:27:58;;;;;;;7.88;3.55;;;30.00;56.90;;;;;;5024581;28;20342;-82
2022/08/25 11:30:23;;;;;;;7.88;4.18;;;29.50;56.20;;;;;;5037978;28;20499;-83
2022/08/25 11:32:51;;;;;;;10.10;3.70;;;29.50;56.70;;;;;;5035696;28;20037;-82
2022/08/25 11:35:26;;;;;;;7.30;3.53;;;29.90;55.20;;;;;;5022662;28;20038;-83
2022/08/25 11:38:11;;;;;;;7.20;3.70;;;29.00;56.50;;;;;;5024619;28;20025;-82
2022/08/25 11:40:48;;;;;;;6.85;3.92;;;29.40;57.40;;;;;;5032491;28;20378;-81
2022/08/25 11:43:38;;;;;;;8.35;3.88;;;29.90;56.60;;;;;;5036417;28;20030;-79
2022/08/25 11:46:33;;;;;;;9.63;3.83;;;30.50;54.20;;;;;;5036802;28;20489;-79
2022/08/25 11:49:30;;;;;;;5.70;3.17;;;30.40;54.40;;;;;;5037672;28;20061;-80
2022/08/25 11:51:57;;;;;;;6.47;3.55;;;30.70;53.80;;;;;;5029292;28;20049;-79
2022/08/25 11:54:23;;;;;;;7.32;3.80;;;30.90;51.70;;;;;;5028309;28;20587;-80
2022/08/25 11:57:06;;;;;;;6.25;3.30;;;31.10;51.60;;;;;;5028413;28;20461;-80
2022/08/25 11:59:52;;;;;;;5.93;3.22;;;30.90;52.00;;;;;;5026339;28;20477;-79
2022/08/25 12:02:46;;;;;;;5.82;3.15;;;31.40;50.80;;;;;;5026533;28;20026;-80
2022/08/25 12:05:18;;;;;;;8.40;3.60;;;31.40;50.10;;;;;;5037085;28;20065;-79
2022/08/25 12:07:46;;;;;;;5.47;3.28;;;31.30;51.30;;;;;;5032448;28;20022;-79
2022/08/25 12:10:45;;;;;;;6.43;3.10;;;32.20;50.30;;;;;;5026390;28;20022;-79
2022/08/25 12:13:37;;;;;;;6.57;3.20;;;32.40;48.60;;;;;;5028356;28;20022;-79
2022/08/25 12:16:04;;;;;;;4.82;3.17;;;31.10;50.50;;;;;;5038042;28;20105;-79
2022/08/25 12:18:29;;;;;;;5.95;3.05;;;31.50;49.60;;;;;;5033014;28;20605;-80
2022/08/25 12:20:55;;;;;;;6.40;3.55;;;32.20;49.00;;;;;;5028592;28;20033;-80
2022/08/25 12:23:43;;;;;;;6.95;2.92;;;32.80;47.10;;;;;;5028731;28;20481;-80
2022/08/25 12:26:35;;;;;;;6.43;3.22;;;32.80;46.50;;;;;;5035121;28;20087;-79
2022/08/25 12:29:30;;;;;;;6.45;2.88;;;33.10;46.50;;;;;;5018059;28;20116;-79
2022/08/25 12:31:56;;;;;;;5.68;2.72;;;33.00;45.60;;;;;;5015069;28;20037;-80
2022/08/25 12:34:41;;;;;;;8.25;3.33;;;33.60;45.20;;;;;;5035268;28;20033;-81
2022/08/25 12:37:13;;;;;;;7.43;2.95;;;32.80;46.50;;;;;;5041075;28;20033;-80
2022/08/25 12:39:55;;;;;;;8.05;3.25;;;32.40;45.70;;;;;;5034565;28;20029;-80
2022/08/25 12:42:39;;;;;;;6.97;2.83;;;32.90;46.40;;;;;;5021474;28;20120;-80
2022/08/25 12:45:12;;;;;;;6.30;2.97;;;33.70;44.30;;;;;;5031606;28;20037;-80
2022/08/25 12:47:38;;;;;;;4.32;2.40;;;32.20;45.80;;;;;;5031688;28;20021;-80
2022/08/25 12:50:39;;;;;;;9.77;2.92;;;32.80;45.50;;;;;;5032447;28;20528;-80
2022/08/25 12:53:27;;;;;;;6.55;2.80;;;33.20;44.40;;;;;;5020098;28;20021;-80
2022/08/25 12:56:03;;;;;;;6.18;3.00;;;33.50;44.50;;;;;;5037806;28;20030;-79
2022/08/25 12:58:48;;;;;;;6.50;2.80;;;33.80;43.20;;;;;;5037374;28;20033;-80
2022/08/25 13:01:40;;;;;;;4.82;2.55;;;33.90;43.60;;;;;;5035748;28;20104;-79
2022/08/25 13:04:16;;;;;;;5.68;2.55;;;33.40;44.30;;;;;;5038587;28;20039;-80
2022/08/25 13:07:10;;;;;;;6.18;2.55;;;34.60;42.40;;;;;;5035745;28;20037;-79
2022/08/25 13:10:06;;;;;;;6.47;2.50;;;33.80;42.50;;;;;;5037243;28;20113;-80